createdAt,value
2019-04-30T00:01:22.556Z,95449.12
2019-04-30T00:04:01.195Z,95450.53
2019-04-30T00:06:34.338Z,95441.30
2019-04-30T00:09:00.620Z,95440.73
2019-04-30T00:11:29.250Z,95443.20
2019-04-30T00:13:58.938Z,95442.66
2019-04-30T00:16:31.104Z,95439.84
2019-04-30T00:19:00.709Z,95440.53
2019-04-30T00:21:28.392Z,95435.47
2019-04-30T00:24:00.945Z,95435.50
2019-04-30T00:26:27.336Z,95433.05
2019-04-30T00:28:56.171Z,95433.05
2019-04-30T00:31:27.452Z,95433.77
2019-04-30T00:33:57.825Z,95433.77
2019-04-30T00:36:29.352Z,95437.90
2019-04-30T00:38:55.749Z,95419.14
2019-04-30T00:41:25.612Z,95425.23
2019-04-30T00:43:55.168Z,95425.23
2019-04-30T00:46:27.289Z,95418.09
2019-04-30T00:48:55.713Z,95418.09
2019-04-30T00:51:26.194Z,95420.78
2019-04-30T00:53:55.786Z,95420.78
2019-04-30T00:56:28.096Z,95417.66
2019-04-30T00:58:57.386Z,95417.66
2019-04-30T01:01:48.028Z,95415.66
2019-04-30T01:04:24.586Z,95415.66
2019-04-30T01:06:51.293Z,95415.66
2019-04-30T01:09:19.909Z,95415.66
2019-04-30T01:11:48.792Z,95409.81
2019-04-30T01:14:18.839Z,95409.81
2019-04-30T01:16:49.376Z,95412.44
2019-04-30T01:19:29.627Z,95402.27
2019-04-30T01:21:50.830Z,95408.25
2019-04-30T01:24:19.061Z,95408.25
2019-04-30T01:26:48.610Z,95413.75
2019-04-30T01:29:19.250Z,95401.23
2019-04-30T01:31:48.857Z,95401.23
2019-04-30T01:34:19.570Z,95405.40
2019-04-30T01:36:52.081Z,95398.84
2019-04-30T01:39:19.555Z,95398.84
2019-04-30T01:41:48.874Z,95394.70
2019-04-30T01:44:19.561Z,95391.30
2019-04-30T01:46:51.428Z,95384.30
2019-04-30T01:49:20.206Z,95390.02
2019-04-30T01:51:52.813Z,95390.02
2019-04-30T01:54:24.036Z,95394.41
2019-04-30T01:57:02.805Z,95386.33
2019-04-30T01:59:50.443Z,95381.25
2019-04-30T02:02:20.622Z,95380.61
2019-04-30T02:04:52.001Z,95380.61
2019-04-30T02:07:21.208Z,95384.33
2019-04-30T02:09:49.803Z,95384.33
2019-04-30T02:12:21.660Z,95380.09
2019-04-30T02:14:49.789Z,95380.09
2019-04-30T02:17:19.384Z,95387.31
2019-04-30T02:19:56.397Z,95371.39
2019-04-30T02:22:18.939Z,95378.33
2019-04-30T02:24:48.588Z,95379.97
2019-04-30T02:27:19.130Z,95375.44
2019-04-30T02:29:49.492Z,95375.44
2019-04-30T02:32:20.633Z,95380.02
2019-04-30T02:34:54.706Z,95382.21
2019-04-30T02:37:26.917Z,95382.21
2019-04-30T02:39:55.763Z,95385.01
2019-04-30T02:42:24.459Z,95381.91
2019-04-30T02:44:53.544Z,95386.07
2019-04-30T02:47:23.298Z,95386.07
2019-04-30T02:49:53.308Z,95390.83
2019-04-30T02:52:24.299Z,95390.83
2019-04-30T02:54:54.495Z,95384.52
2019-04-30T02:57:23.696Z,95389.91
2019-04-30T03:02:44.187Z,95388.45
2019-04-30T03:05:13.558Z,95390.33
2019-04-30T03:07:42.684Z,95390.33
2019-04-30T03:10:11.598Z,95383.48
2019-04-30T03:12:40.867Z,95386.38
2019-04-30T03:15:10.273Z,95389.58
2019-04-30T03:18:00.369Z,95385.91
2019-04-30T03:20:49.573Z,95385.91
2019-04-30T03:23:19.583Z,95386.19
2019-04-30T03:25:50.157Z,95386.19
2019-04-30T03:28:20.261Z,95382.45
2019-04-30T03:30:56.172Z,95385.44
2019-04-30T03:33:22.868Z,95383.08
2019-04-30T03:35:54.218Z,95381.91
2019-04-30T03:38:20.798Z,95386.83
2019-04-30T03:40:50.211Z,95375.95
2019-04-30T03:43:20.161Z,95377.50
2019-04-30T03:45:49.900Z,95371.77
2019-04-30T03:48:19.976Z,95373.59
2019-04-30T03:50:55.622Z,95372.53
2019-04-30T03:53:20.155Z,95371.25
2019-04-30T03:55:50.576Z,95376.95
2019-04-30T03:58:21.307Z,95375.16
2019-04-30T04:01:00.354Z,95377.25
2019-04-30T04:03:29.725Z,95374.27
2019-04-30T04:06:24.934Z,95378.84
2019-04-30T04:09:00.046Z,95384.17
2019-04-30T04:11:32.287Z,95379.38
2019-04-30T04:14:00.877Z,95378.47
2019-04-30T04:16:32.270Z,95381.11
2019-04-30T04:19:02.734Z,95383.78
2019-04-30T04:21:30.201Z,95387.13
2019-04-30T04:24:00.219Z,95388.09
2019-04-30T04:26:29.841Z,95386.66
2019-04-30T04:28:59.421Z,95387.17
2019-04-30T04:31:29.821Z,95395.89
2019-04-30T04:34:00.011Z,95390.45
2019-04-30T04:36:30.220Z,95392.30
2019-04-30T04:39:00.110Z,95392.59
2019-04-30T04:41:29.624Z,95390.72
2019-04-30T04:44:00.172Z,95389.98
2019-04-30T04:46:30.786Z,95392.66
2019-04-30T04:48:59.734Z,95400.02
2019-04-30T04:51:38.021Z,95392.31
2019-04-30T04:54:00.103Z,95401.45
2019-04-30T04:56:30.462Z,95398.84
2019-04-30T04:59:00.157Z,95400.36
2019-04-30T05:01:28.983Z,95399.06
2019-04-30T05:03:59.136Z,95397.77
2019-04-30T05:06:29.790Z,95398.76
2019-04-30T05:08:59.161Z,95397.13
2019-04-30T05:11:29.385Z,95402.17
2019-04-30T05:13:59.287Z,95401.71
2019-04-30T05:16:28.931Z,95406.94
2019-04-30T05:18:58.608Z,95408.53
2019-04-30T05:21:41.159Z,95410.28
2019-04-30T05:23:59.103Z,95408.73
2019-04-30T05:26:28.693Z,95408.36
2019-04-30T05:28:59.117Z,95409.75
2019-04-30T05:31:28.971Z,95414.26
2019-04-30T05:33:58.703Z,95415.86
2019-04-30T05:36:29.205Z,95411.59
2019-04-30T05:38:58.737Z,95421.72
2019-04-30T05:41:28.924Z,95416.50
2019-04-30T05:43:59.146Z,95411.05
2019-04-30T05:46:29.854Z,95418.17
2019-04-30T05:48:59.414Z,95413.52
2019-04-30T05:51:28.945Z,95418.14
2019-04-30T05:53:59.213Z,95417.64
2019-04-30T05:56:30.175Z,95413.97
2019-04-30T05:58:59.342Z,95410.13
2019-04-30T06:01:29.513Z,95413.22
2019-04-30T06:03:59.430Z,95416.41
2019-04-30T06:06:29.030Z,95413.52
2019-04-30T06:09:14.520Z,95410.88
2019-04-30T06:12:00.175Z,95410.82
2019-04-30T06:14:45.899Z,95414.46
2019-04-30T06:17:19.596Z,95411.83
2019-04-30T06:19:51.443Z,95417.70
2019-04-30T06:22:20.040Z,95417.25
2019-04-30T06:24:49.506Z,95424.86
2019-04-30T06:27:19.327Z,95422.67
2019-04-30T06:29:48.973Z,95425.53
2019-04-30T06:32:18.673Z,95427.62
2019-04-30T06:34:49.808Z,95433.63
2019-04-30T06:37:19.443Z,95433.00
2019-04-30T06:39:49.827Z,95429.96
2019-04-30T06:42:19.478Z,95435.00
2019-04-30T06:44:49.419Z,95439.16
2019-04-30T06:47:31.972Z,95437.32
2019-04-30T06:49:49.615Z,95440.42
2019-04-30T06:52:23.242Z,95439.02
2019-04-30T06:54:49.820Z,95442.36
2019-04-30T06:57:19.917Z,95443.18
2019-04-30T06:59:51.341Z,95439.67
2019-04-30T07:02:19.919Z,95444.41
2019-04-30T07:04:49.294Z,95449.22
2019-04-30T07:07:22.697Z,95452.30
2019-04-30T07:09:58.644Z,95444.38
2019-04-30T07:12:33.697Z,95449.92
2019-04-30T07:15:01.386Z,95449.63
2019-04-30T07:17:30.241Z,95448.19
2019-04-30T07:19:59.653Z,95449.67
2019-04-30T07:22:40.097Z,95447.30
2019-04-30T07:25:00.115Z,95447.29
2019-04-30T07:27:30.104Z,95447.67
2019-04-30T07:29:59.918Z,95446.77
2019-04-30T07:32:28.979Z,95451.17
2019-04-30T07:34:59.474Z,95450.67
2019-04-30T07:37:29.368Z,95460.39
2019-04-30T07:39:58.932Z,95454.67
2019-04-30T07:42:29.464Z,95445.15
2019-04-30T07:45:00.687Z,95458.84
2019-04-30T07:47:29.594Z,95460.28
2019-04-30T07:50:00.694Z,95453.73
2019-04-30T07:52:33.311Z,95460.16
2019-04-30T07:55:00.638Z,95454.47
2019-04-30T07:57:32.456Z,95453.11
2019-04-30T08:00:00.721Z,95456.81
2019-04-30T08:02:36.973Z,95453.05
2019-04-30T08:05:10.312Z,95453.38
2019-04-30T08:07:39.122Z,95456.63
2019-04-30T08:10:08.784Z,95460.60
2019-04-30T08:12:42.174Z,95467.08
2019-04-30T08:15:09.663Z,95459.43
2019-04-30T08:17:38.941Z,95461.66
2019-04-30T08:20:08.775Z,95464.91
2019-04-30T08:22:40.869Z,95465.37
2019-04-30T08:25:09.734Z,95470.53
2019-04-30T08:27:39.273Z,95466.48
2019-04-30T08:30:20.781Z,95466.63
2019-04-30T08:32:38.784Z,95476.64
2019-04-30T08:35:09.399Z,95474.45
2019-04-30T08:37:38.562Z,95469.87
2019-04-30T08:40:08.657Z,95472.81
2019-04-30T08:42:38.387Z,95472.63
2019-04-30T08:45:09.512Z,95468.78
2019-04-30T08:47:39.252Z,95475.52
2019-04-30T08:50:09.737Z,95471.55
2019-04-30T08:52:39.426Z,95470.20
2019-04-30T08:55:16.147Z,95471.23
2019-04-30T08:57:39.666Z,95468.48
2019-04-30T09:00:09.190Z,95470.12
2019-04-30T09:02:39.010Z,95458.09
2019-04-30T09:05:13.381Z,95467.77
2019-04-30T09:07:41.977Z,95470.94
2019-04-30T09:10:10.921Z,95471.66
2019-04-30T09:12:39.986Z,95465.63
2019-04-30T09:15:09.237Z,95468.33
2019-04-30T09:17:38.570Z,95473.27
2019-04-30T09:20:09.128Z,95468.20
2019-04-30T09:22:39.362Z,95462.69
2019-04-30T09:25:09.296Z,95471.06
2019-04-30T09:27:39.746Z,95466.91
2019-04-30T09:30:10.413Z,95472.02
2019-04-30T09:32:39.318Z,95468.80
2019-04-30T09:35:09.578Z,95470.66
2019-04-30T09:37:39.067Z,95470.91
2019-04-30T09:40:17.635Z,95473.45
2019-04-30T09:42:39.519Z,95478.08
2019-04-30T09:45:08.780Z,95477.00
2019-04-30T09:47:37.393Z,95478.72
2019-04-30T09:50:06.194Z,95478.53
2019-04-30T09:52:36.084Z,95473.72
2019-04-30T09:55:05.353Z,95481.01
2019-04-30T09:57:34.177Z,95472.59
2019-04-30T10:00:02.910Z,95479.45
2019-04-30T10:02:31.783Z,95478.16
2019-04-30T10:05:00.942Z,95471.43
2019-04-30T10:07:30.208Z,95467.28
2019-04-30T10:09:59.151Z,95457.69
2019-04-30T10:12:29.420Z,95458.92
2019-04-30T10:14:59.280Z,95455.39
2019-04-30T10:17:38.823Z,95453.59
2019-04-30T10:20:09.635Z,95455.68
2019-04-30T10:22:40.054Z,95459.82
2019-04-30T10:25:09.599Z,95458.33
2019-04-30T10:27:38.819Z,95455.83
2019-04-30T10:30:09.478Z,95451.81
2019-04-30T10:32:38.473Z,95463.27
2019-04-30T10:35:07.633Z,95458.78
2019-04-30T10:37:36.264Z,95456.47
2019-04-30T10:40:05.374Z,95448.63
2019-04-30T10:42:35.045Z,95441.98
2019-04-30T10:45:03.976Z,95444.42
2019-04-30T10:47:32.839Z,95441.70
2019-04-30T10:50:01.487Z,95431.72
2019-04-30T10:52:30.175Z,95435.47
2019-04-30T10:54:59.517Z,95434.44
2019-04-30T10:57:28.527Z,95432.03
2019-04-30T10:59:58.701Z,95437.80
2019-04-30T11:02:28.778Z,95428.67
2019-04-30T11:04:57.895Z,95424.69
2019-04-30T11:07:28.684Z,95431.84
2019-04-30T11:09:58.672Z,95420.77
2019-04-30T11:12:29.233Z,95428.83
2019-04-30T11:14:58.024Z,95428.19
2019-04-30T11:17:27.112Z,95434.20
2019-04-30T11:19:56.718Z,95434.67
2019-04-30T11:22:26.276Z,95429.72
2019-04-30T11:25:00.121Z,95425.37
2019-04-30T11:27:25.883Z,95429.08
2019-04-30T11:30:01.500Z,95425.61
2019-04-30T11:32:25.879Z,95427.75
2019-04-30T11:34:54.685Z,95429.22
2019-04-30T11:37:23.605Z,95421.45
2019-04-30T11:39:52.614Z,95425.17
2019-04-30T11:42:21.234Z,95424.86
2019-04-30T11:44:49.928Z,95415.23
2019-04-30T11:47:33.962Z,95420.70
2019-04-30T11:50:03.257Z,95418.94
2019-04-30T11:52:31.909Z,95419.86
2019-04-30T11:55:00.617Z,95408.30
2019-04-30T11:57:29.878Z,95413.23
2019-04-30T11:59:58.503Z,95410.71
2019-04-30T12:02:39.311Z,95410.70
2019-04-30T12:05:08.322Z,95406.35
2019-04-30T12:07:55.984Z,95407.10
2019-04-30T12:10:41.281Z,95409.40
2019-04-30T12:13:27.692Z,95403.31
2019-04-30T12:15:58.637Z,95406.05
2019-04-30T12:18:27.366Z,95403.77
2019-04-30T12:20:55.973Z,95404.83
2019-04-30T12:23:24.580Z,95398.16
2019-04-30T12:25:53.591Z,95399.39
2019-04-30T12:28:22.687Z,95394.92
2019-04-30T12:30:51.586Z,95391.25
2019-04-30T12:33:20.424Z,95395.19
2019-04-30T12:35:51.292Z,95390.40
2019-04-30T12:38:19.630Z,95390.16
2019-04-30T12:40:48.536Z,95387.41
2019-04-30T12:43:17.256Z,95389.34
2019-04-30T12:45:46.196Z,95392.70
2019-04-30T12:48:20.372Z,95389.45
2019-04-30T12:51:06.941Z,95387.53
2019-04-30T12:53:57.356Z,95387.06
2019-04-30T12:56:34.417Z,95384.84
2019-04-30T12:59:03.052Z,95376.95
2019-04-30T13:01:32.177Z,95381.36
2019-04-30T13:04:02.337Z,95374.59
2019-04-30T13:06:31.454Z,95364.51
2019-04-30T13:09:01.287Z,95368.53
2019-04-30T13:11:31.225Z,95363.66
2019-04-30T13:14:00.741Z,95362.27
2019-04-30T13:16:29.716Z,95363.54
2019-04-30T13:18:59.375Z,95357.48
2019-04-30T13:21:28.531Z,95359.03
2019-04-30T13:23:57.414Z,95363.20
2019-04-30T13:26:28.085Z,95366.47
2019-04-30T13:29:01.216Z,95355.19
2019-04-30T13:31:29.905Z,95351.08
2019-04-30T13:34:08.819Z,95350.12
2019-04-30T13:36:40.703Z,95348.23
2019-04-30T13:39:16.247Z,95353.77
2019-04-30T13:41:51.059Z,95352.45
2019-04-30T13:44:24.988Z,95349.02
2019-04-30T13:46:53.592Z,95347.48
2019-04-30T13:49:22.194Z,95343.33
2019-04-30T13:51:50.835Z,95343.20
2019-04-30T13:54:19.673Z,95334.95
2019-04-30T13:56:49.335Z,95340.91
2019-04-30T13:59:18.220Z,95343.59
2019-04-30T14:01:48.829Z,95336.39
2019-04-30T14:04:51.483Z,95335.14
2019-04-30T14:07:39.941Z,95333.69
2019-04-30T14:10:08.480Z,95338.92
2019-04-30T14:12:42.557Z,95327.46
2019-04-30T14:15:11.235Z,95331.38
2019-04-30T14:17:40.359Z,95332.67
2019-04-30T14:22:34.600Z,95326.83
2019-04-30T14:25:03.216Z,95331.02
2019-04-30T14:27:31.985Z,95326.50
2019-04-30T14:30:00.708Z,95315.16
2019-04-30T14:32:29.357Z,95322.20
2019-04-30T14:34:58.839Z,95318.88
2019-04-30T14:37:29.399Z,95321.05
2019-04-30T14:39:58.434Z,95314.00
2019-04-30T14:42:28.860Z,95316.36
2019-04-30T14:45:17.275Z,95310.66
2019-04-30T14:47:53.228Z,95305.86
2019-04-30T14:50:22.573Z,95310.73
2019-04-30T14:53:15.173Z,95308.06
2019-04-30T14:56:08.521Z,95318.16
2019-04-30T14:58:40.563Z,95308.94
2019-04-30T15:01:19.393Z,95315.87
2019-04-30T15:03:49.505Z,95308.97
2019-04-30T15:06:19.378Z,95303.95
2019-04-30T15:08:49.461Z,95309.28
2019-04-30T15:11:18.996Z,95304.30
2019-04-30T15:13:49.410Z,95302.34
2019-04-30T15:16:18.068Z,95304.98
2019-04-30T15:18:46.943Z,95300.70
2019-04-30T15:21:15.912Z,95296.72
2019-04-30T15:24:03.059Z,95289.76
2019-04-30T15:26:31.692Z,95295.19
2019-04-30T15:29:00.397Z,95296.44
2019-04-30T15:31:29.660Z,95296.95
2019-04-30T15:34:11.083Z,95301.01
2019-04-30T15:36:39.864Z,95294.09
2019-04-30T15:39:30.642Z,95284.43
2019-04-30T15:41:57.336Z,95286.10
2019-04-30T15:44:26.180Z,95280.50
2019-04-30T15:46:54.903Z,95285.59
2019-04-30T15:49:23.531Z,95284.23
2019-04-30T15:51:52.208Z,95277.73
2019-04-30T15:54:21.015Z,95278.16
2019-04-30T15:56:49.694Z,95283.84
2019-04-30T15:59:24.228Z,95281.39
2019-04-30T16:01:54.448Z,95277.97
2019-04-30T16:04:32.574Z,95280.07
2019-04-30T16:07:01.180Z,95272.78
2019-04-30T16:09:35.736Z,95268.36
2019-04-30T16:12:14.045Z,95267.62
2019-04-30T16:14:42.694Z,95276.41
2019-04-30T16:17:15.949Z,95270.16
2019-04-30T16:19:44.563Z,95266.97
2019-04-30T16:22:13.166Z,95269.06
2019-04-30T16:24:41.951Z,95267.23
2019-04-30T16:27:10.559Z,95268.53
2019-04-30T16:29:40.766Z,95266.33
2019-04-30T16:32:09.473Z,95269.24
2019-04-30T16:34:38.932Z,95265.63
2019-04-30T16:37:07.555Z,95261.84
2019-04-30T16:39:36.164Z,95257.34
2019-04-30T16:42:04.994Z,95256.25
2019-04-30T16:44:33.888Z,95260.91
2019-04-30T16:47:13.089Z,95255.80
2019-04-30T16:49:32.936Z,95255.30
2019-04-30T16:52:01.724Z,95260.47
2019-04-30T16:54:30.860Z,95257.61
2019-04-30T16:57:04.249Z,95260.87
2019-04-30T16:59:35.601Z,95259.08
2019-04-30T17:02:04.866Z,95257.21
2019-04-30T17:04:42.288Z,95259.09
2019-04-30T17:07:20.990Z,95260.65
2019-04-30T17:09:59.478Z,95260.39
2019-04-30T17:12:34.313Z,95255.36
2019-04-30T17:15:19.272Z,95258.01
2019-04-30T17:17:49.665Z,95261.16
2019-04-30T17:20:20.780Z,95256.31
2019-04-30T17:22:49.746Z,95256.88
2019-04-30T17:25:20.360Z,95262.59
2019-04-30T17:27:49.010Z,95264.33
2019-04-30T17:30:19.334Z,95259.95
2019-04-30T17:32:49.948Z,95257.09
2019-04-30T17:35:19.116Z,95257.41
2019-04-30T17:37:47.733Z,95250.56
2019-04-30T17:40:16.697Z,95258.48
2019-04-30T17:42:45.458Z,95259.51
2019-04-30T17:45:14.532Z,95260.73
2019-04-30T17:47:43.156Z,95266.09
2019-04-30T17:50:12.581Z,95261.44
2019-04-30T17:52:41.333Z,95262.52
2019-04-30T17:55:10.350Z,95267.17
2019-04-30T17:57:40.382Z,95263.30
2019-04-30T18:00:18.968Z,95268.72
2019-04-30T18:02:41.844Z,95266.63
2019-04-30T18:05:11.532Z,95260.17
2019-04-30T18:07:40.100Z,95267.42
2019-04-30T18:10:10.805Z,95269.40
2019-04-30T18:12:39.424Z,95268.80
2019-04-30T18:15:13.264Z,95270.44
2019-04-30T18:17:43.644Z,95268.73
2019-04-30T18:20:21.562Z,95267.47
2019-04-30T18:22:59.476Z,95266.53
2019-04-30T18:25:47.305Z,95266.25
2019-04-30T18:28:15.904Z,95265.55
2019-04-30T18:30:44.545Z,95266.91
2019-04-30T18:33:13.153Z,95272.79
2019-04-30T18:35:41.760Z,95275.86
2019-04-30T18:38:10.361Z,95273.38
2019-04-30T18:40:39.698Z,95275.50
2019-04-30T18:43:08.733Z,95278.67
2019-04-30T18:45:39.399Z,95277.33
2019-04-30T18:48:09.744Z,95269.74
2019-04-30T18:50:38.149Z,95264.00
2019-04-30T18:53:13.000Z,95272.91
2019-04-30T18:55:41.862Z,95271.23
2019-04-30T18:58:10.461Z,95276.77
2019-04-30T19:00:43.683Z,95275.72
2019-04-30T19:03:12.307Z,95276.59
2019-04-30T19:05:42.955Z,95275.23
2019-04-30T19:08:45.836Z,95280.64
2019-04-30T19:11:33.731Z,95279.11
2019-04-30T19:14:09.589Z,95275.34
2019-04-30T19:16:55.720Z,95286.16
2019-04-30T19:19:52.344Z,95285.89
2019-04-30T19:22:20.949Z,95287.53
2019-04-30T19:24:56.092Z,95287.51
2019-04-30T19:27:20.437Z,95291.52
2019-04-30T19:29:51.720Z,95296.48
2019-04-30T19:32:19.871Z,95291.91
2019-04-30T19:34:49.033Z,95292.11
2019-04-30T19:37:19.592Z,95290.97
2019-04-30T19:39:48.730Z,95286.04
2019-04-30T19:42:18.785Z,95289.69
2019-04-30T19:44:57.122Z,95290.06
2019-04-30T19:47:19.122Z,95291.63
2019-04-30T19:49:48.888Z,95297.91
2019-04-30T19:52:19.185Z,95298.79
2019-04-30T19:54:48.794Z,95300.95
2019-04-30T19:57:19.151Z,95305.13
2019-04-30T19:59:49.175Z,95306.66
2019-04-30T20:02:19.455Z,95303.70
2019-04-30T20:04:48.233Z,95306.03
2019-04-30T20:07:19.526Z,95295.55
2019-04-30T20:10:00.292Z,95302.38
2019-04-30T20:12:18.927Z,95303.38
2019-04-30T20:14:49.607Z,95306.53
2019-04-30T20:17:19.558Z,95310.37
2019-04-30T20:19:49.005Z,95312.38
2019-04-30T20:22:19.612Z,95310.70
2019-04-30T20:24:49.151Z,95315.53
2019-04-30T20:27:18.977Z,95309.12
2019-04-30T20:29:51.509Z,95302.80
2019-04-30T20:32:20.830Z,95311.80
2019-04-30T20:34:48.971Z,95311.05
2019-04-30T20:37:19.573Z,95309.86
2019-04-30T20:39:56.028Z,95308.31
2019-04-30T20:42:24.770Z,95306.48
2019-04-30T20:44:53.706Z,95307.67
2019-04-30T20:47:22.303Z,95309.12
2019-04-30T20:49:51.317Z,95301.05
2019-04-30T20:52:20.768Z,95290.50
2019-04-30T20:54:49.666Z,95301.89
2019-04-30T20:57:19.929Z,95301.30
2019-04-30T20:59:49.674Z,95298.68
2019-04-30T21:02:20.412Z,95296.84
2019-04-30T21:04:48.913Z,95298.37
2019-04-30T21:07:19.530Z,95294.19
2019-04-30T21:09:49.179Z,95293.44
2019-04-30T21:12:18.762Z,95291.91
2019-04-30T21:14:48.554Z,95296.99
2019-04-30T21:17:17.860Z,95288.77
2019-04-30T21:19:46.467Z,95288.73
2019-04-30T21:22:15.099Z,95282.83
2019-04-30T21:24:44.273Z,95285.93
2019-04-30T21:27:12.851Z,95283.65
2019-04-30T21:29:42.458Z,95282.22
2019-04-30T21:32:45.040Z,95281.44
2019-04-30T21:35:33.212Z,95273.77
2019-04-30T21:38:02.519Z,95279.31
2019-04-30T21:40:31.475Z,95278.00
2019-04-30T21:43:01.149Z,95279.68
2019-04-30T21:45:31.564Z,95272.50
2019-04-30T21:48:01.507Z,95278.20
2019-04-30T21:50:30.242Z,95273.16
2019-04-30T21:52:59.765Z,95267.09
2019-04-30T21:55:29.603Z,95265.78
2019-04-30T21:57:59.453Z,95274.34
2019-04-30T22:00:45.931Z,95274.17
2019-04-30T22:03:15.333Z,95275.48
2019-04-30T22:05:44.079Z,95273.80
2019-04-30T22:08:12.968Z,95264.05
2019-04-30T22:10:42.086Z,95270.53
2019-04-30T22:13:11.150Z,95270.70
2019-04-30T22:15:40.598Z,95269.36
2019-04-30T22:18:09.482Z,95262.02
2019-04-30T22:20:38.873Z,95274.91
2019-04-30T22:23:07.751Z,95270.09
2019-04-30T22:25:36.882Z,95270.09
2019-04-30T22:28:05.841Z,95264.84
2019-04-30T22:30:37.417Z,95261.19
2019-04-30T22:33:06.483Z,95268.46
2019-04-30T22:35:46.729Z,95268.46
2019-04-30T22:38:19.092Z,95263.73
2019-04-30T22:40:48.852Z,95264.80
2019-04-30T22:43:17.644Z,95264.80
2019-04-30T22:45:57.187Z,95259.52
2019-04-30T22:48:25.802Z,95257.06
2019-04-30T22:50:54.435Z,95257.53
2019-04-30T22:53:23.291Z,95260.44
2019-04-30T22:55:51.906Z,95260.44
2019-04-30T22:58:20.524Z,95263.08
2019-04-30T23:00:49.489Z,95263.08
2019-04-30T23:03:25.716Z,95258.00
2019-04-30T23:05:54.378Z,95254.39
2019-04-30T23:08:23.233Z,95253.39
2019-04-30T23:10:51.846Z,95249.75
2019-04-30T23:13:20.685Z,95249.67
2019-04-30T23:15:51.447Z,95249.17
2019-04-30T23:18:20.597Z,95244.36
2019-04-30T23:20:49.719Z,95249.52
2019-04-30T23:23:18.312Z,95242.41
2019-04-30T23:25:46.936Z,95235.19
2019-04-30T23:28:15.548Z,95239.35
2019-04-30T23:30:44.203Z,95236.19
2019-04-30T23:33:12.797Z,95240.71
2019-04-30T23:35:41.656Z,95236.53
2019-04-30T23:38:10.276Z,95244.33
2019-04-30T23:40:48.464Z,95234.97
2019-04-30T23:43:17.401Z,95230.59
2019-04-30T23:45:46.289Z,95234.50
2019-04-30T23:48:15.284Z,95230.30
2019-04-30T23:50:44.236Z,95221.94
2019-04-30T23:53:12.824Z,95226.64
2019-04-30T23:55:41.530Z,95222.50
2019-04-30T23:58:10.214Z,95214.38
